Vohburg — V2OW7 — position and weather

sailwx.info

Track history (hours):
 
Tides and Currents Weather Stations Pressure Air Temp Water Temp Dewpoint Dewpoint Depression Visibility Wind Speed Wind Dir Waves Ship Positions

Vohburg

Last reported at 2015-Jan-28 06:31 UTC. Time now 2015-Jan-29 06:24 UTC.
Position N 59°47' E 024°24'.

Length 140 m; draft 6.2 m.

Type: Ship (hazmat cat A). MMSI: 305773000.

Date/timePositionNaut miles runAvg speedWind from/ knotsBaromVisibWave heightAir tempDewpointWater temp
2015-Jan-28 06:31N 59°47' E 024°24'6917.4
2015-Jan-28 02:33N 60°01' E 026°38'3 0.1
2015-Jan-26 21:26N 59°59' E 026°42'7018.1
2015-Jan-26 17:33N 59°44' E 024°25'2618.2
2015-Jan-26 16:08N 59°36' E 023°37'373 8.8
2015-Jan-24 21:30N 55°29' E 014°56'2217.0
2015-Jan-24 20:14N 55°15' E 014°27'6216.9
2015-Jan-24 16:33N 54°46' E 012°50'1717.1
2015-Jan-24 15:33N 54°38' E 012°25'1616.1
2015-Jan-24 14:33N 54°24' E 012°09'1716.8
2015-Jan-24 13:33N 54°26' E 011°40'1615.7
2015-Jan-24 12:33N 54°33' E 011°16'3316.2
2015-Jan-24 10:33N 54°30' E 010°20'1110.7
2015-Jan-24 09:33N 54°22' E 010°09'2 1.8
2015-Jan-24 08:33N 54°22' E 010°06'7 7.3
2015-Jan-24 07:33N 54°21' E 009°53'6 6.0
2015-Jan-24 06:33N 54°20' E 009°43'7 7.0
2015-Jan-24 05:32N 54°14' E 009°36'8 8.0
2015-Jan-24 04:29N 54°10' E 009°24'8 7.3
2015-Jan-24 03:23N 54°02' E 009°18'6 7.7
2015-Jan-24 02:34N 53°57' E 009°13'4 4.1
2015-Jan-24 01:33N 53°54' E 009°09'2 2.2
2015-Jan-24 00:33N 53°53' E 009°05'0 0.1
2015-Jan-23 23:31N 53°53' E 009°05'0 0.2
2015-Jan-23 22:31N 53°53' E 009°05'0 0.0
2015-Jan-23 21:31N 53°53' E 009°05'0 0.1
2015-Jan-23 20:33N 53°53' E 009°05'1111.4
2015-Jan-23 19:33N 53°51' E 008°46'1212.3
2015-Jan-23 18:34N 53°58' E 008°30'1514.4
2015-Jan-23 17:33N 53°59' E 008°05'1716.5
2015-Jan-23 16:30N 53°56' E 007°36'6817.3
2015-Jan-23 12:32N 53°37' E 005°45'1818.3
2015-Jan-23 11:33N 53°31' E 005°16'1918.6
2015-Jan-23 10:33N 53°25' E 004°47'3618.1
2015-Jan-23 08:33N 52°54' E 004°17'1818.1
2015-Jan-23 07:34N 52°38' E 004°01'2418.0
2015-Jan-23 06:13N 52°15' E 003°53'1318.4
2015-Jan-23 05:32N 52°03' E 003°59'1414.4
2015-Jan-23 04:34N 51°54' E 004°17'5 4.7
2015-Jan-23 03:25N 51°53' E 004°25'0 0.0
2015-Jan-23 02:31N 51°53' E 004°25'0 0.0
2015-Jan-23 01:25N 51°53' E 004°25'0 0.0
2015-Jan-23 00:30N 51°53' E 004°25'0 0.0
2015-Jan-22 23:33N 51°53' E 004°25'0 0.0
2015-Jan-22 22:33N 51°53' E 004°25'0 0.0
2015-Jan-22 21:33N 51°53' E 004°25'0 0.0
2015-Jan-22 20:33N 51°53' E 004°25'0 0.0
2015-Jan-22 19:33N 51°53' E 004°25'0 0.0
2015-Jan-22 18:33N 51°53' E 004°25'0 0.0
2015-Jan-22 17:33N 51°53' E 004°25'0 0.0
2015-Jan-22 16:33N 51°53' E 004°25'0 0.0
2015-Jan-22 15:33N 51°53' E 004°25'0 0.0
2015-Jan-22 14:33N 51°53' E 004°25'0 0.0
2015-Jan-22 13:33N 51°53' E 004°25'0 0.0
2015-Jan-22 12:33N 51°53' E 004°25'0 0.1
2015-Jan-22 11:34N 51°53' E 004°25'9 8.8
2015-Jan-22 10:34N 51°56' E 004°12'1414.2
2015-Jan-22 09:33N 52°01' E 003°50'2516.9
2015-Jan-22 08:06N 52°13' E 003°15'6017.0
2015-Jan-22 04:33N 52°47' E 001°54'1515.1
2015-Jan-22 03:33N 52°56' E 001°33'1514.9
2015-Jan-22 02:33N 53°04' E 001°12'4414.1
2015-Jan-21 23:28N 53°39' E 000°29'1015.1
2015-Jan-21 22:50N 53°48' E 000°22'115.1
2015-Jan-21 22:46N 53°49' E 000°21'315.3
2015-Jan-21 22:33N 53°51' E 000°18'1515.3
2015-Jan-21 21:33N 54°05' E 000°07'1515.4
2015-Jan-21 20:33N 54°17' W 000°10'1716.6
2015-Jan-21 19:33N 54°29' W 000°29'2216.7
2015-Jan-21 18:16N 54°40' W 001°01'6 7.3
2015-Jan-21 17:26N 54°36' W 001°09'0 0.0
2015-Jan-21 16:23N 54°36' W 001°09'0 0.0
2015-Jan-21 15:20N 54°36' W 001°09'0 0.0
2015-Jan-21 14:26N 54°36' W 001°09'0 0.0
2015-Jan-21 13:23N 54°36' W 001°09'0 0.0
2015-Jan-21 12:29N 54°36' W 001°09'0 0.0
2015-Jan-21 11:29N 54°36' W 001°09'0 0.0
2015-Jan-21 10:29N 54°36' W 001°09'0 0.0
2015-Jan-21 09:26N 54°36' W 001°09'0 0.0
2015-Jan-21 08:11N 54°36' W 001°09'0 0.0
2015-Jan-21 07:29N 54°36' W 001°09'0 0.5
2015-Jan-21 06:33N 54°36' W 001°10'1212.0
2015-Jan-21 05:33N 54°44' W 000°54'1717.0
2015-Jan-21 04:33N 54°51' W 000°27'41717.2
2015-Jan-20 04:14N 57°41' E 010°59'1417.8
2015-Jan-20 03:28N 57°32' E 011°18'1516.9
2015-Jan-20 02:33N 57°18' E 011°32'2518.1
2015-Jan-20 01:11N 56°55' E 011°47'1218.4
2015-Jan-20 00:34N 56°44' E 011°54'2117.8
2015-Jan-19 23:21N 56°25' E 012°11'1518.9
2015-Jan-19 22:33N 56°13' E 012°27'1818.5
2015-Jan-19 21:33N 55°57' E 012°43'1716.6
2015-Jan-19 20:34N 55°40' E 012°42'1514.6
2015-Jan-19 19:34N 55°25' E 012°42'1312.5
2015-Jan-19 18:33N 55°16' E 012°55'4217.8
2015-Jan-19 16:12N 55°14' E 014°09'1015.5
2015-Jan-19 15:33N 55°19' E 014°24'1716.6
2015-Jan-19 14:33N 55°30' E 014°46'1716.7
2015-Jan-19 13:31N 55°38' E 015°13'38516.4
2015-Jan-18 14:05N 59°46' E 024°23'3614.0
2015-Jan-18 11:31N 60°13' E 025°12'  
Track history (hours):
 
Tides and Currents Weather Stations Pressure Air Temp Water Temp Dewpoint Dewpoint Depression Visibility Wind Speed Wind Dir Waves Ship Positions

Vohburg

Last reported at 2015-Jan-28 06:31 UTC. Time now 2015-Jan-29 06:24 UTC.
Position N 59°47' E 024°24'.

Length 140 m; draft 6.2 m.

Type: Ship (hazmat cat A). MMSI: 305773000.

Date/timePositionNaut miles runAvg speedWind from/ knotsBaromVisibWave heightAir tempDewpointWater temp
2015-Jan-28 06:31N 59°47' E 024°24'6917.4
2015-Jan-28 02:33N 60°01' E 026°38'3 0.1
2015-Jan-26 21:26N 59°59' E 026°42'7018.1
2015-Jan-26 17:33N 59°44' E 024°25'2618.2
2015-Jan-26 16:08N 59°36' E 023°37'373 8.8
2015-Jan-24 21:30N 55°29' E 014°56'2217.0
2015-Jan-24 20:14N 55°15' E 014°27'6216.9
2015-Jan-24 16:33N 54°46' E 012°50'1717.1
2015-Jan-24 15:33N 54°38' E 012°25'1616.1
2015-Jan-24 14:33N 54°24' E 012°09'1716.8
2015-Jan-24 13:33N 54°26' E 011°40'1615.7
2015-Jan-24 12:33N 54°33' E 011°16'3316.2
2015-Jan-24 10:33N 54°30' E 010°20'1110.7
2015-Jan-24 09:33N 54°22' E 010°09'2 1.8
2015-Jan-24 08:33N 54°22' E 010°06'7 7.3
2015-Jan-24 07:33N 54°21' E 009°53'6 6.0
2015-Jan-24 06:33N 54°20' E 009°43'7 7.0
2015-Jan-24 05:32N 54°14' E 009°36'8 8.0
2015-Jan-24 04:29N 54°10' E 009°24'8 7.3
2015-Jan-24 03:23N 54°02' E 009°18'6 7.7
2015-Jan-24 02:34N 53°57' E 009°13'4 4.1
2015-Jan-24 01:33N 53°54' E 009°09'2 2.2
2015-Jan-24 00:33N 53°53' E 009°05'0 0.1
2015-Jan-23 23:31N 53°53' E 009°05'0 0.2
2015-Jan-23 22:31N 53°53' E 009°05'0 0.0
2015-Jan-23 21:31N 53°53' E 009°05'0 0.1
2015-Jan-23 20:33N 53°53' E 009°05'1111.4
2015-Jan-23 19:33N 53°51' E 008°46'1212.3
2015-Jan-23 18:34N 53°58' E 008°30'1514.4
2015-Jan-23 17:33N 53°59' E 008°05'1716.5
2015-Jan-23 16:30N 53°56' E 007°36'6817.3
2015-Jan-23 12:32N 53°37' E 005°45'1818.3
2015-Jan-23 11:33N 53°31' E 005°16'1918.6
2015-Jan-23 10:33N 53°25' E 004°47'3618.1
2015-Jan-23 08:33N 52°54' E 004°17'1818.1
2015-Jan-23 07:34N 52°38' E 004°01'2418.0
2015-Jan-23 06:13N 52°15' E 003°53'1318.4
2015-Jan-23 05:32N 52°03' E 003°59'1414.4
2015-Jan-23 04:34N 51°54' E 004°17'5 4.7
2015-Jan-23 03:25N 51°53' E 004°25'0 0.0
2015-Jan-23 02:31N 51°53' E 004°25'0 0.0
2015-Jan-23 01:25N 51°53' E 004°25'0 0.0
2015-Jan-23 00:30N 51°53' E 004°25'0 0.0
2015-Jan-22 23:33N 51°53' E 004°25'0 0.0
2015-Jan-22 22:33N 51°53' E 004°25'0 0.0
2015-Jan-22 21:33N 51°53' E 004°25'0 0.0
2015-Jan-22 20:33N 51°53' E 004°25'0 0.0
2015-Jan-22 19:33N 51°53' E 004°25'0 0.0
2015-Jan-22 18:33N 51°53' E 004°25'0 0.0
2015-Jan-22 17:33N 51°53' E 004°25'0 0.0
2015-Jan-22 16:33N 51°53' E 004°25'0 0.0
2015-Jan-22 15:33N 51°53' E 004°25'0 0.0
2015-Jan-22 14:33N 51°53' E 004°25'0 0.0
2015-Jan-22 13:33N 51°53' E 004°25'0 0.0
2015-Jan-22 12:33N 51°53' E 004°25'0 0.1
2015-Jan-22 11:34N 51°53' E 004°25'9 8.8
2015-Jan-22 10:34N 51°56' E 004°12'1414.2
2015-Jan-22 09:33N 52°01' E 003°50'2516.9
2015-Jan-22 08:06N 52°13' E 003°15'6017.0
2015-Jan-22 04:33N 52°47' E 001°54'1515.1
2015-Jan-22 03:33N 52°56' E 001°33'1514.9
2015-Jan-22 02:33N 53°04' E 001°12'4414.1
2015-Jan-21 23:28N 53°39' E 000°29'1015.1
2015-Jan-21 22:50N 53°48' E 000°22'115.1
2015-Jan-21 22:46N 53°49' E 000°21'315.3
2015-Jan-21 22:33N 53°51' E 000°18'1515.3
2015-Jan-21 21:33N 54°05' E 000°07'1515.4
2015-Jan-21 20:33N 54°17' W 000°10'1716.6
2015-Jan-21 19:33N 54°29' W 000°29'2216.7
2015-Jan-21 18:16N 54°40' W 001°01'6 7.3
2015-Jan-21 17:26N 54°36' W 001°09'0 0.0
2015-Jan-21 16:23N 54°36' W 001°09'0 0.0
2015-Jan-21 15:20N 54°36' W 001°09'0 0.0
2015-Jan-21 14:26N 54°36' W 001°09'0 0.0
2015-Jan-21 13:23N 54°36' W 001°09'0 0.0
2015-Jan-21 12:29N 54°36' W 001°09'0 0.0
2015-Jan-21 11:29N 54°36' W 001°09'0 0.0
2015-Jan-21 10:29N 54°36' W 001°09'0 0.0
2015-Jan-21 09:26N 54°36' W 001°09'0 0.0
2015-Jan-21 08:11N 54°36' W 001°09'0 0.0
2015-Jan-21 07:29N 54°36' W 001°09'0 0.5
2015-Jan-21 06:33N 54°36' W 001°10'1212.0
2015-Jan-21 05:33N 54°44' W 000°54'1717.0
2015-Jan-21 04:33N 54°51' W 000°27'41717.2
2015-Jan-20 04:14N 57°41' E 010°59'1417.8
2015-Jan-20 03:28N 57°32' E 011°18'1516.9
2015-Jan-20 02:33N 57°18' E 011°32'2518.1
2015-Jan-20 01:11N 56°55' E 011°47'1218.4
2015-Jan-20 00:34N 56°44' E 011°54'2117.8
2015-Jan-19 23:21N 56°25' E 012°11'1518.9
2015-Jan-19 22:33N 56°13' E 012°27'1818.5
2015-Jan-19 21:33N 55°57' E 012°43'1716.6
2015-Jan-19 20:34N 55°40' E 012°42'1514.6
2015-Jan-19 19:34N 55°25' E 012°42'1312.5
2015-Jan-19 18:33N 55°16' E 012°55'4217.8
2015-Jan-19 16:12N 55°14' E 014°09'1015.5
2015-Jan-19 15:33N 55°19' E 014°24'1716.6
2015-Jan-19 14:33N 55°30' E 014°46'1716.7
2015-Jan-19 13:31N 55°38' E 015°13'38516.4
2015-Jan-18 14:05N 59°46' E 024°23'3614.0
2015-Jan-18 11:31N 60°13' E 025°12'  

Dump ship's entire track history